createdAt,value
2022-11-28T00:00:46.362Z,10.30
2022-11-28T00:01:46.384Z,9.30
2022-11-28T00:02:46.607Z,9.50
2022-11-28T00:03:46.403Z,8.60
2022-11-28T00:04:46.347Z,9.40
2022-11-28T00:05:47.020Z,9.50
2022-11-28T00:06:47.360Z,9.70
2022-11-28T00:07:46.373Z,9.60
2022-11-28T00:08:46.300Z,9.40
2022-11-28T00:09:46.291Z,9.40
2022-11-28T00:10:46.284Z,9.40
2022-11-28T00:11:46.293Z,10.20
2022-11-28T00:12:46.291Z,10.10
2022-11-28T00:13:46.276Z,9.90
2022-11-28T00:14:46.286Z,10.00
2022-11-28T00:15:46.316Z,10.00
2022-11-28T00:16:46.235Z,10.10
2022-11-28T00:17:46.300Z,9.40
2022-11-28T00:18:46.387Z,10.20
2022-11-28T00:19:46.304Z,9.40
2022-11-28T00:20:46.221Z,9.80
2022-11-28T00:21:46.226Z,9.20
2022-11-28T00:22:46.239Z,10.00
2022-11-28T00:23:46.207Z,9.90
2022-11-28T00:24:46.215Z,9.60
2022-11-28T00:25:46.200Z,9.80
2022-11-28T00:26:46.220Z,8.90
2022-11-28T00:27:46.188Z,10.90
2022-11-28T00:28:46.203Z,9.40
2022-11-28T00:29:46.176Z,9.40
2022-11-28T00:30:46.205Z,9.60
2022-11-28T00:31:46.276Z,9.80
2022-11-28T00:32:46.151Z,10.30
2022-11-28T00:33:46.211Z,9.20
2022-11-28T00:34:46.158Z,9.40
2022-11-28T00:35:46.220Z,9.70
2022-11-28T00:36:46.176Z,9.00
2022-11-28T00:37:46.161Z,9.90
2022-11-28T00:38:46.144Z,9.40
2022-11-28T00:39:46.128Z,9.80
2022-11-28T00:40:46.122Z,9.70
2022-11-28T00:41:46.111Z,9.20
2022-11-28T00:42:46.230Z,8.60
2022-11-28T00:43:46.137Z,8.70
2022-11-28T00:44:46.089Z,9.60
2022-11-28T00:45:46.113Z,8.90
2022-11-28T00:46:46.112Z,9.00
2022-11-28T00:47:46.087Z,9.20
2022-11-28T00:48:46.110Z,9.70
2022-11-28T00:49:46.059Z,9.90
2022-11-28T00:50:46.067Z,9.50
2022-11-28T00:51:46.119Z,8.90
2022-11-28T00:52:46.069Z,9.90
2022-11-28T00:53:46.068Z,9.90
2022-11-28T00:54:46.043Z,8.80
2022-11-28T00:55:46.055Z,9.90
2022-11-28T00:56:46.049Z,9.20
2022-11-28T00:57:46.036Z,9.10
2022-11-28T00:58:46.043Z,9.30
2022-11-28T00:59:46.011Z,8.90
2022-11-28T01:00:46.100Z,8.90
2022-11-28T01:01:46.149Z,9.30
2022-11-28T01:02:46.030Z,9.90
2022-11-28T01:03:46.013Z,8.80
2022-11-28T01:04:45.988Z,8.70
2022-11-28T01:05:45.988Z,9.60
2022-11-28T01:06:45.993Z,10.00
2022-11-28T01:07:46.131Z,8.50
2022-11-28T01:08:45.954Z,9.20
2022-11-28T01:09:45.966Z,8.70
2022-11-28T01:10:45.934Z,9.00
2022-11-28T01:11:45.955Z,8.70
2022-11-28T01:12:45.974Z,8.90
2022-11-28T01:13:45.954Z,9.00
2022-11-28T01:14:45.935Z,9.20
2022-11-28T01:15:45.937Z,9.00
2022-11-28T01:16:45.953Z,9.10
2022-11-28T01:17:45.945Z,9.70
2022-11-28T01:18:45.898Z,9.40
2022-11-28T01:19:45.912Z,9.10
2022-11-28T01:20:45.901Z,8.90
2022-11-28T01:21:45.883Z,9.60
2022-11-28T01:22:45.899Z,10.20
2022-11-28T01:23:46.941Z,9.20
2022-11-28T01:24:45.893Z,9.80
2022-11-28T01:25:45.856Z,10.10
2022-11-28T01:26:45.855Z,9.70
2022-11-28T01:27:45.907Z,9.70
2022-11-28T01:28:45.929Z,9.60
2022-11-28T01:29:45.861Z,10.20
2022-11-28T01:30:45.844Z,10.20
2022-11-28T01:31:45.887Z,10.10
2022-11-28T01:32:45.833Z,9.40
2022-11-28T01:33:45.842Z,9.10
2022-11-28T01:34:45.802Z,9.70
2022-11-28T01:35:45.901Z,9.70
2022-11-28T01:36:45.828Z,9.30
2022-11-28T01:37:45.799Z,9.30
2022-11-28T01:38:46.832Z,9.90
2022-11-28T01:39:45.855Z,9.40
2022-11-28T01:40:45.767Z,9.60
2022-11-28T01:41:45.837Z,10.80
2022-11-28T01:42:45.769Z,10.70
2022-11-28T01:43:45.769Z,10.50
2022-11-28T01:44:45.748Z,9.50
2022-11-28T01:45:45.807Z,9.90
2022-11-28T01:46:45.841Z,10.60
2022-11-28T01:47:45.762Z,10.40
2022-11-28T01:48:45.744Z,9.70
2022-11-28T01:49:45.765Z,10.60
2022-11-28T01:50:45.736Z,9.90
2022-11-28T01:51:45.746Z,11.90
2022-11-28T01:52:45.698Z,11.30
2022-11-28T01:53:45.701Z,10.90
2022-11-28T01:54:45.816Z,10.60
2022-11-28T01:55:45.774Z,11.10
2022-11-28T01:56:45.750Z,11.30
2022-11-28T01:57:45.675Z,11.80
2022-11-28T01:58:45.747Z,10.60
2022-11-28T01:59:45.682Z,11.80
2022-11-28T02:00:45.769Z,12.10
2022-11-28T02:01:45.694Z,11.80
2022-11-28T02:02:45.645Z,10.50
2022-11-28T02:03:45.757Z,11.90
2022-11-28T02:04:45.662Z,10.60
2022-11-28T02:05:45.689Z,11.70
2022-11-28T02:06:46.638Z,11.30
2022-11-28T02:07:45.677Z,11.90
2022-11-28T02:08:45.619Z,12.10
2022-11-28T02:09:45.628Z,11.70
2022-11-28T02:10:45.619Z,11.30
2022-11-28T02:11:45.672Z,12.20
2022-11-28T02:12:45.632Z,11.10
2022-11-28T02:13:45.603Z,11.70
2022-11-28T02:14:45.608Z,11.60
2022-11-28T02:15:45.584Z,11.90
2022-11-28T02:16:45.612Z,11.80
2022-11-28T02:17:45.606Z,12.00
2022-11-28T02:18:50.382Z,11.90
2022-11-28T02:19:47.571Z,11.90
2022-11-28T02:20:45.584Z,12.30
2022-11-28T02:21:45.568Z,12.50
2022-11-28T02:22:45.545Z,11.40
2022-11-28T02:23:45.554Z,11.60
2022-11-28T02:24:45.532Z,12.10
2022-11-28T02:25:45.568Z,12.10
2022-11-28T02:26:45.534Z,11.90
2022-11-28T02:27:45.584Z,12.00
2022-11-28T02:28:45.543Z,12.30
2022-11-28T02:29:45.512Z,12.00
2022-11-28T02:30:45.501Z,12.70
2022-11-28T02:31:45.551Z,12.70
2022-11-28T02:32:45.477Z,13.00
2022-11-28T02:33:45.489Z,12.90
2022-11-28T02:34:47.055Z,13.50
2022-11-28T02:35:46.459Z,13.10
2022-11-28T02:36:45.479Z,12.70
2022-11-28T02:37:45.473Z,12.30
2022-11-28T02:38:45.447Z,12.90
2022-11-28T02:39:45.437Z,12.30
2022-11-28T02:40:45.428Z,12.50
2022-11-28T02:41:45.484Z,12.80
2022-11-28T02:42:45.417Z,12.40
2022-11-28T02:43:45.520Z,13.20
2022-11-28T02:44:45.469Z,12.80
2022-11-28T02:45:45.395Z,12.70
2022-11-28T02:46:45.501Z,13.30
2022-11-28T02:47:45.378Z,12.80
2022-11-28T02:48:45.371Z,13.10
2022-11-28T02:49:45.371Z,12.80
2022-11-28T02:50:45.356Z,12.90
2022-11-28T02:51:45.395Z,13.00
2022-11-28T02:52:45.371Z,12.70
2022-11-28T02:53:45.364Z,12.00
2022-11-28T02:54:45.370Z,11.70
2022-11-28T02:55:45.346Z,12.70
2022-11-28T02:56:45.327Z,12.30
2022-11-28T02:57:45.371Z,12.50
2022-11-28T02:58:45.343Z,13.90
2022-11-28T02:59:45.395Z,12.90
2022-11-28T03:00:45.346Z,13.40
2022-11-28T03:01:45.349Z,13.00
2022-11-28T03:02:45.344Z,12.90
2022-11-28T03:03:45.289Z,13.60
2022-11-28T03:04:45.344Z,13.50
2022-11-28T03:05:45.299Z,12.60
2022-11-28T03:06:45.300Z,12.90
2022-11-28T03:07:45.357Z,12.90
2022-11-28T03:08:45.282Z,12.90
2022-11-28T03:09:45.307Z,11.90
2022-11-28T03:10:46.232Z,13.10
2022-11-28T03:11:45.230Z,12.80
2022-11-28T03:12:45.243Z,12.10
2022-11-28T03:13:45.267Z,12.30
2022-11-28T03:14:45.235Z,11.80
2022-11-28T03:15:45.313Z,12.30
2022-11-28T03:16:45.265Z,12.00
2022-11-28T03:17:45.196Z,12.00
2022-11-28T03:18:45.278Z,12.30
2022-11-28T03:19:45.210Z,12.60
2022-11-28T03:20:45.191Z,12.00
2022-11-28T03:21:45.177Z,12.80
2022-11-28T03:22:45.186Z,11.20
2022-11-28T03:23:45.173Z,12.40
2022-11-28T03:24:45.195Z,11.80
2022-11-28T03:25:45.177Z,12.10
2022-11-28T03:26:45.151Z,12.10
2022-11-28T03:27:45.209Z,10.70
2022-11-28T03:28:45.267Z,11.40
2022-11-28T03:29:45.131Z,11.20
2022-11-28T03:30:45.174Z,11.30
2022-11-28T03:31:45.330Z,12.10
2022-11-28T03:32:45.131Z,10.60
2022-11-28T03:33:45.108Z,11.10
2022-11-28T03:34:45.226Z,11.40
2022-11-28T03:35:45.131Z,11.50
2022-11-28T03:36:45.118Z,10.50
2022-11-28T03:37:45.085Z,11.20
2022-11-28T03:38:45.090Z,10.90
2022-11-28T03:39:45.075Z,11.40
2022-11-28T03:40:45.102Z,9.90
2022-11-28T03:41:45.078Z,11.00
2022-11-28T03:42:45.085Z,10.60
2022-11-28T03:43:45.080Z,12.30
2022-11-28T03:44:45.283Z,11.60
2022-11-28T03:45:45.054Z,11.20
2022-11-28T03:46:45.310Z,10.70
2022-11-28T03:47:45.103Z,11.00
2022-11-28T03:48:45.093Z,10.30
2022-11-28T03:49:45.053Z,10.10
2022-11-28T03:50:45.031Z,11.40
2022-11-28T03:51:45.017Z,11.30
2022-11-28T03:52:45.033Z,10.70
2022-11-28T03:53:45.024Z,9.90
2022-11-28T03:54:45.249Z,10.30
2022-11-28T03:55:45.078Z,10.60
2022-11-28T03:56:44.998Z,11.00
2022-11-28T03:57:45.067Z,11.60
2022-11-28T03:58:44.978Z,10.60
2022-11-28T03:59:44.978Z,10.80
2022-11-28T04:00:45.017Z,11.10
2022-11-28T04:01:45.017Z,11.10
2022-11-28T04:02:44.993Z,10.90
2022-11-28T04:03:45.020Z,11.40
2022-11-28T04:04:45.138Z,10.60
2022-11-28T04:05:44.963Z,12.00
2022-11-28T04:06:44.940Z,12.00
2022-11-28T04:07:45.043Z,11.40
2022-11-28T04:08:44.961Z,10.90
2022-11-28T04:09:44.963Z,11.50
2022-11-28T04:10:44.900Z,11.40
2022-11-28T04:11:44.902Z,11.20
2022-11-28T04:12:44.933Z,11.80
2022-11-28T04:13:44.944Z,12.00
2022-11-28T04:14:45.095Z,12.10
2022-11-28T04:15:44.914Z,11.60
2022-11-28T04:16:47.220Z,11.10
2022-11-28T04:17:45.874Z,11.60
2022-11-28T04:18:44.919Z,11.70
2022-11-28T04:19:44.947Z,11.60
2022-11-28T04:20:44.901Z,12.00
2022-11-28T04:21:44.871Z,11.40
2022-11-28T04:22:44.860Z,11.70
2022-11-28T04:23:44.911Z,11.80
2022-11-28T04:24:45.082Z,12.20
2022-11-28T04:25:44.891Z,12.30
2022-11-28T04:26:44.853Z,12.70
2022-11-28T04:27:44.834Z,12.50
2022-11-28T04:28:44.813Z,12.60
2022-11-28T04:29:44.836Z,12.20
2022-11-28T04:30:44.821Z,12.00
2022-11-28T04:31:44.867Z,12.10
2022-11-28T04:32:44.786Z,11.80
2022-11-28T04:33:44.780Z,11.80
2022-11-28T04:34:45.142Z,11.80
2022-11-28T04:35:44.852Z,12.40
2022-11-28T04:36:44.780Z,12.20
2022-11-28T04:37:44.861Z,11.80
2022-11-28T04:38:44.750Z,11.90
2022-11-28T04:39:44.752Z,12.20
2022-11-28T04:40:44.774Z,11.50
2022-11-28T04:41:44.753Z,12.50
2022-11-28T04:42:47.598Z,12.60
2022-11-28T04:43:45.743Z,11.50
2022-11-28T04:44:44.993Z,12.80
2022-11-28T04:45:44.777Z,12.30
2022-11-28T04:46:44.746Z,12.60
2022-11-28T04:47:44.719Z,11.80
2022-11-28T04:48:44.708Z,12.30
2022-11-28T04:49:44.683Z,12.70
2022-11-28T04:50:44.696Z,11.30
2022-11-28T04:51:44.795Z,12.20
2022-11-28T04:52:44.672Z,11.40
2022-11-28T04:53:44.687Z,12.30
2022-11-28T04:54:44.898Z,12.10
2022-11-28T04:55:44.679Z,12.40
2022-11-28T04:56:44.700Z,12.30
2022-11-28T04:57:44.664Z,12.50
2022-11-28T04:58:44.655Z,12.30
2022-11-28T04:59:44.632Z,12.70
2022-11-28T05:00:44.683Z,12.90
2022-11-28T05:01:44.735Z,13.20
2022-11-28T05:02:44.663Z,12.10
2022-11-28T05:03:44.611Z,12.40
2022-11-28T05:04:44.855Z,11.60
2022-11-28T05:05:44.634Z,12.60
2022-11-28T05:06:44.587Z,12.50
2022-11-28T05:07:44.731Z,13.20
2022-11-28T05:08:44.621Z,12.50
2022-11-28T05:09:44.605Z,12.20
2022-11-28T05:10:44.583Z,13.00
2022-11-28T05:11:44.572Z,12.30
2022-11-28T05:12:44.594Z,12.50
2022-11-28T05:13:44.568Z,13.00
2022-11-28T05:14:44.755Z,11.80
2022-11-28T05:15:44.586Z,13.00
2022-11-28T05:16:44.615Z,11.90
2022-11-28T05:17:44.536Z,11.80
2022-11-28T05:18:44.536Z,11.60
2022-11-28T05:19:44.546Z,11.10
2022-11-28T05:20:44.535Z,13.40
2022-11-28T05:21:44.579Z,11.90
2022-11-28T05:22:44.524Z,11.40
2022-11-28T05:23:44.564Z,12.40
2022-11-28T05:24:44.611Z,12.10
2022-11-28T05:25:44.491Z,11.80
2022-11-28T05:26:44.473Z,13.10
2022-11-28T05:27:44.481Z,12.30
2022-11-28T05:28:44.476Z,13.00
2022-11-28T05:29:49.396Z,11.80
2022-11-28T05:30:46.445Z,12.60
2022-11-28T05:31:44.523Z,13.30
2022-11-28T05:32:44.473Z,12.60
2022-11-28T05:33:44.441Z,12.50
2022-11-28T05:34:44.649Z,12.50
2022-11-28T05:35:44.426Z,12.20
2022-11-28T05:36:44.484Z,12.00
2022-11-28T05:37:44.424Z,12.70
2022-11-28T05:38:44.437Z,13.40
2022-11-28T05:39:44.819Z,11.90
2022-11-28T05:40:44.511Z,12.60
2022-11-28T05:41:44.405Z,12.80
2022-11-28T05:42:44.404Z,13.20
2022-11-28T05:43:44.414Z,11.70
2022-11-28T05:44:44.451Z,13.00
2022-11-28T05:45:44.433Z,12.50
2022-11-28T05:46:44.405Z,13.30
2022-11-28T05:47:44.386Z,12.30
2022-11-28T05:48:44.419Z,14.30
2022-11-28T05:49:44.697Z,13.30
2022-11-28T05:50:44.371Z,13.00
2022-11-28T05:51:44.349Z,13.30
2022-11-28T05:52:44.341Z,13.50
2022-11-28T05:53:44.329Z,13.50
2022-11-28T05:54:44.346Z,13.10
2022-11-28T05:55:44.400Z,13.70
2022-11-28T05:56:44.368Z,13.60
2022-11-28T05:57:44.342Z,13.10
2022-11-28T05:58:44.313Z,13.00
2022-11-28T05:59:44.580Z,12.90
2022-11-28T06:00:44.305Z,13.90
2022-11-28T06:01:44.417Z,14.20
2022-11-28T06:02:44.296Z,13.80
2022-11-28T06:03:44.321Z,14.90
2022-11-28T06:04:44.379Z,14.00
2022-11-28T06:05:44.447Z,13.40
2022-11-28T06:06:44.282Z,13.60
2022-11-28T06:07:44.306Z,13.30
2022-11-28T06:08:44.267Z,14.20
2022-11-28T06:09:44.450Z,15.00
2022-11-28T06:10:44.252Z,14.60
2022-11-28T06:11:44.449Z,13.40
2022-11-28T06:12:44.232Z,13.10
2022-11-28T06:13:44.220Z,14.20
2022-11-28T06:14:44.242Z,13.40
2022-11-28T06:15:44.216Z,13.70
2022-11-28T06:16:44.280Z,13.90
2022-11-28T06:17:44.209Z,14.90
2022-11-28T06:18:44.200Z,14.20
2022-11-28T06:19:44.485Z,13.90
2022-11-28T06:20:44.197Z,14.40
2022-11-28T06:21:44.203Z,14.10
2022-11-28T06:22:44.234Z,13.70
2022-11-28T06:23:44.401Z,13.80
2022-11-28T06:24:44.156Z,14.90
2022-11-28T06:25:44.189Z,15.40
2022-11-28T06:26:44.171Z,15.00
2022-11-28T06:27:44.279Z,14.10
2022-11-28T06:28:44.189Z,14.70
2022-11-28T06:29:44.504Z,14.70
2022-11-28T06:30:44.149Z,14.40
2022-11-28T06:31:44.230Z,13.30
2022-11-28T06:32:44.131Z,15.40
2022-11-28T06:33:44.151Z,14.40
2022-11-28T06:34:44.108Z,14.90
2022-11-28T06:35:44.113Z,15.30
2022-11-28T06:36:44.096Z,15.90
2022-11-28T06:37:44.087Z,15.50
2022-11-28T06:38:44.122Z,14.70
2022-11-28T06:39:44.400Z,16.10
2022-11-28T06:40:44.072Z,16.00
2022-11-28T06:41:44.077Z,16.10
2022-11-28T06:42:44.085Z,16.60
2022-11-28T06:43:44.162Z,15.60
2022-11-28T06:44:44.049Z,16.70
2022-11-28T06:45:44.112Z,15.10
2022-11-28T06:46:44.489Z,15.30
2022-11-28T06:47:44.021Z,15.00
2022-11-28T06:48:44.035Z,16.60
2022-11-28T06:49:44.306Z,15.80
2022-11-28T06:50:44.011Z,15.70
2022-11-28T06:51:44.026Z,17.20
2022-11-28T06:52:44.001Z,17.40
2022-11-28T06:53:44.008Z,17.50
2022-11-28T06:54:44.016Z,17.60
2022-11-28T06:55:43.980Z,17.10
2022-11-28T06:56:43.984Z,18.20
2022-11-28T06:57:43.978Z,18.80
2022-11-28T06:58:43.998Z,19.20
2022-11-28T06:59:44.306Z,18.90
2022-11-28T07:00:44.058Z,18.40
2022-11-28T07:01:43.990Z,17.90
2022-11-28T07:02:43.993Z,19.20
2022-11-28T07:03:43.944Z,18.10
2022-11-28T07:04:43.955Z,17.60
2022-11-28T07:05:43.933Z,18.80
2022-11-28T07:06:43.924Z,17.10
2022-11-28T07:07:53.685Z,17.50
2022-11-28T07:08:45.937Z,17.10
2022-11-28T07:09:44.340Z,17.00
2022-11-28T07:10:43.895Z,17.80
2022-11-28T07:11:43.919Z,17.00
2022-11-28T07:12:43.915Z,17.90
2022-11-28T07:13:43.923Z,17.90
2022-11-28T07:14:43.928Z,17.90
2022-11-28T07:15:43.952Z,17.40
2022-11-28T07:16:43.896Z,17.60
2022-11-28T07:17:43.906Z,17.60
2022-11-28T07:18:43.860Z,18.00
2022-11-28T07:19:44.223Z,18.40
2022-11-28T07:20:43.857Z,18.60
2022-11-28T07:21:43.852Z,17.50
2022-11-28T07:22:43.825Z,18.00
2022-11-28T07:23:44.869Z,17.90
2022-11-28T07:24:44.829Z,17.30
2022-11-28T07:25:43.822Z,19.40
2022-11-28T07:26:43.838Z,18.30
2022-11-28T07:27:43.841Z,16.80
2022-11-28T07:28:43.823Z,17.40
2022-11-28T07:29:44.128Z,17.20
2022-11-28T07:30:43.843Z,16.80
2022-11-28T07:31:43.898Z,16.60
2022-11-28T07:32:43.787Z,17.10
2022-11-28T07:33:43.800Z,17.30
2022-11-28T07:34:46.664Z,18.50
2022-11-28T07:35:45.808Z,21.90
2022-11-28T07:36:43.768Z,17.90
2022-11-28T07:37:43.757Z,17.60
2022-11-28T07:38:43.758Z,17.30
2022-11-28T07:39:43.975Z,17.80
2022-11-28T07:40:43.776Z,18.30
2022-11-28T07:41:43.733Z,18.00
2022-11-28T07:42:43.713Z,18.00
2022-11-28T07:43:43.745Z,17.80
2022-11-28T07:44:43.710Z,17.40
2022-11-28T07:46:00.087Z,17.40
2022-11-28T07:46:45.851Z,17.60
2022-11-28T07:47:43.708Z,17.30
2022-11-28T07:48:43.692Z,17.50
2022-11-28T07:49:44.091Z,22.10
2022-11-28T07:50:43.668Z,17.90
2022-11-28T07:51:43.709Z,17.60
2022-11-28T07:52:43.670Z,18.30
2022-11-28T07:53:43.655Z,17.50
2022-11-28T07:54:43.668Z,17.10
2022-11-28T07:55:43.650Z,18.70
2022-11-28T07:57:11.962Z,16.10
2022-11-28T07:57:45.637Z,18.40
2022-11-28T07:58:43.863Z,17.90
2022-11-28T07:59:43.952Z,17.70
2022-11-28T08:00:43.645Z,17.70
2022-11-28T08:01:43.731Z,18.30
2022-11-28T08:02:43.638Z,17.60
2022-11-28T08:03:43.601Z,18.80
2022-11-28T08:04:49.379Z,24.10
2022-11-28T08:05:45.603Z,18.80
2022-11-28T08:06:43.584Z,18.30
2022-11-28T08:07:43.702Z,18.70
2022-11-28T08:08:43.628Z,19.60
2022-11-28T08:09:44.011Z,17.70
2022-11-28T08:10:43.635Z,17.90
2022-11-28T08:11:43.557Z,17.70
2022-11-28T08:12:43.577Z,18.50
2022-11-28T08:13:43.610Z,19.00
2022-11-28T08:14:43.866Z,22.50
2022-11-28T08:15:43.532Z,17.70
2022-11-28T08:16:43.592Z,20.30
2022-11-28T08:17:43.523Z,17.30
2022-11-28T08:18:43.959Z,17.00
2022-11-28T08:19:43.522Z,18.10
2022-11-28T08:20:43.514Z,18.50
2022-11-28T08:21:44.053Z,18.30
2022-11-28T08:22:43.534Z,19.10
2022-11-28T08:23:43.492Z,19.10
2022-11-28T08:24:43.744Z,18.80
2022-11-28T08:25:43.498Z,18.80
2022-11-28T08:26:43.481Z,18.10
2022-11-28T08:27:43.463Z,17.20
2022-11-28T08:28:43.471Z,17.20
2022-11-28T08:29:43.625Z,17.80
2022-11-28T08:30:43.493Z,20.00
2022-11-28T08:31:43.459Z,20.20
2022-11-28T08:32:43.438Z,19.70
2022-11-28T08:33:43.443Z,23.30
2022-11-28T08:34:43.445Z,18.30
2022-11-28T08:35:43.452Z,22.70
2022-11-28T08:36:43.430Z,18.90
2022-11-28T08:37:43.495Z,18.20
2022-11-28T08:38:53.435Z,17.40
2022-11-28T08:39:45.660Z,18.10
2022-11-28T08:40:43.435Z,17.40
2022-11-28T08:41:43.402Z,17.10
2022-11-28T08:42:43.533Z,17.40
2022-11-28T08:43:43.365Z,17.80
2022-11-28T08:44:43.754Z,17.10
2022-11-28T08:45:43.441Z,16.60
2022-11-28T08:46:43.381Z,17.90
2022-11-28T08:47:43.394Z,17.30
2022-11-28T08:48:43.350Z,17.60
2022-11-28T08:49:43.521Z,17.50
2022-11-28T08:50:46.776Z,18.90
2022-11-28T08:51:44.303Z,18.00
2022-11-28T08:52:43.393Z,17.80
2022-11-28T08:53:47.333Z,18.30
2022-11-28T08:54:45.704Z,18.50
2022-11-28T08:55:43.304Z,17.50
2022-11-28T08:56:43.363Z,17.20
2022-11-28T08:57:43.307Z,18.90
2022-11-28T08:58:43.285Z,19.10
2022-11-28T08:59:43.499Z,18.50
2022-11-28T09:00:43.267Z,20.20
2022-11-28T09:01:43.346Z,17.30
2022-11-28T09:02:43.281Z,21.30
2022-11-28T09:03:43.412Z,18.60
2022-11-28T09:04:43.262Z,17.90
2022-11-28T09:05:43.257Z,19.50
2022-11-28T09:06:43.274Z,17.40
2022-11-28T09:07:43.382Z,23.90
2022-11-28T09:08:43.226Z,17.50
2022-11-28T09:09:43.237Z,17.80
2022-11-28T09:10:43.255Z,19.10
2022-11-28T09:11:43.253Z,16.50
2022-11-28T09:12:43.217Z,21.50
2022-11-28T09:13:43.223Z,20.30
2022-11-28T09:14:43.263Z,17.30
2022-11-28T09:15:43.241Z,18.50
2022-11-28T09:16:43.368Z,17.50
2022-11-28T09:17:43.157Z,16.80
2022-11-28T09:18:43.159Z,20.30
2022-11-28T09:19:43.455Z,17.90
2022-11-28T09:20:43.152Z,17.20
2022-11-28T09:21:43.209Z,17.70
2022-11-28T09:22:43.232Z,18.20
2022-11-28T09:23:43.157Z,17.70
2022-11-28T09:24:43.186Z,17.40
2022-11-28T09:25:43.148Z,16.80
2022-11-28T09:26:43.163Z,19.40
2022-11-28T09:27:43.157Z,17.70
2022-11-28T09:28:43.146Z,20.10
2022-11-28T09:29:43.317Z,16.50
2022-11-28T09:30:43.127Z,20.10
2022-11-28T09:31:47.106Z,20.70
2022-11-28T09:32:44.106Z,16.70
2022-11-28T09:33:43.109Z,17.50
2022-11-28T09:34:43.063Z,17.70
2022-11-28T09:35:43.090Z,16.50
2022-11-28T09:36:43.053Z,17.80
2022-11-28T09:37:43.073Z,17.70
2022-11-28T09:38:43.081Z,18.80
2022-11-28T09:39:57.298Z,17.30
2022-11-28T09:40:45.024Z,17.30
2022-11-28T09:41:43.050Z,18.00
2022-11-28T09:42:43.055Z,18.70
2022-11-28T09:43:43.110Z,17.50
2022-11-28T09:44:43.020Z,18.00
2022-11-28T09:45:43.094Z,17.50
2022-11-28T09:46:43.017Z,17.40
2022-11-28T09:47:43.001Z,19.50
2022-11-28T09:48:43.095Z,17.90
2022-11-28T09:49:43.398Z,18.20
2022-11-28T09:50:42.998Z,17.10
2022-11-28T09:51:42.957Z,18.30
2022-11-28T09:52:43.112Z,20.20
2022-11-28T09:53:43.075Z,20.40
2022-11-28T09:54:43.008Z,17.70
2022-11-28T09:55:43.007Z,18.90
2022-11-28T09:56:42.940Z,18.70
2022-11-28T09:57:42.956Z,17.30
2022-11-28T09:58:42.938Z,17.50
2022-11-28T09:59:43.087Z,17.80
2022-11-28T10:00:43.008Z,20.40
2022-11-28T10:01:42.929Z,18.00
2022-11-28T10:02:42.920Z,18.20
2022-11-28T10:03:42.928Z,18.30
2022-11-28T10:04:42.977Z,20.30
2022-11-28T10:05:42.919Z,21.00
2022-11-28T10:06:42.910Z,18.10
2022-11-28T10:07:42.951Z,19.80
2022-11-28T10:08:42.906Z,19.60
2022-11-28T10:09:43.093Z,19.40
2022-11-28T10:10:42.909Z,19.40
2022-11-28T10:11:42.909Z,19.00
2022-11-28T10:12:42.863Z,17.90
2022-11-28T10:14:06.685Z,19.00
2022-11-28T10:14:44.904Z,17.90
2022-11-28T10:15:42.868Z,19.60
2022-11-28T10:16:42.913Z,20.50
2022-11-28T10:17:42.863Z,18.60
2022-11-28T10:18:42.838Z,26.70
2022-11-28T10:19:58.234Z,24.80
2022-11-28T10:20:44.818Z,19.40
2022-11-28T10:21:42.809Z,19.70
2022-11-28T10:22:42.888Z,20.90
2022-11-28T10:23:42.827Z,18.50
2022-11-28T10:24:42.803Z,20.60
2022-11-28T10:25:42.776Z,23.60
2022-11-28T10:26:42.811Z,19.70
2022-11-28T10:27:42.808Z,19.10
2022-11-28T10:28:42.903Z,20.90
2022-11-28T10:29:43.132Z,20.60
2022-11-28T10:30:42.812Z,19.80
2022-11-28T10:31:42.840Z,19.70
2022-11-28T10:32:42.768Z,19.00
2022-11-28T10:33:42.785Z,19.50
2022-11-28T10:34:42.740Z,28.00
2022-11-28T10:35:42.762Z,19.20
2022-11-28T10:36:42.745Z,21.80
2022-11-28T10:37:42.761Z,20.70
2022-11-28T10:38:42.918Z,19.90
2022-11-28T10:39:42.983Z,23.90
2022-11-28T10:40:42.709Z,19.30
2022-11-28T10:41:42.713Z,24.90
2022-11-28T10:42:42.750Z,19.30
2022-11-28T10:43:42.710Z,20.60
2022-11-28T10:44:42.732Z,20.80
2022-11-28T10:45:42.723Z,20.70
2022-11-28T10:46:42.744Z,20.60
2022-11-28T10:47:42.742Z,20.00
2022-11-28T10:48:42.709Z,24.80
2022-11-28T10:49:43.022Z,20.40
2022-11-28T10:50:42.665Z,23.50
2022-11-28T10:51:42.675Z,20.30
2022-11-28T10:52:42.659Z,27.50
2022-11-28T10:53:42.676Z,20.30
2022-11-28T10:54:42.768Z,19.80
2022-11-28T10:55:42.719Z,22.20
2022-11-28T10:56:42.845Z,21.30
2022-11-28T10:57:42.675Z,22.30
2022-11-28T10:58:42.761Z,19.50
2022-11-28T10:59:42.810Z,23.00
2022-11-28T11:00:42.605Z,24.80
2022-11-28T11:01:45.920Z,20.10
2022-11-28T11:02:44.577Z,22.50
2022-11-28T11:03:42.590Z,22.70
2022-11-28T11:04:42.680Z,20.60
2022-11-28T11:05:42.593Z,22.10
2022-11-28T11:07:06.957Z,19.40
2022-11-28T11:07:43.603Z,20.30
2022-11-28T11:08:42.573Z,19.60
2022-11-28T11:09:42.830Z,24.90
2022-11-28T11:10:42.588Z,20.30
2022-11-28T11:11:42.604Z,19.20
2022-11-28T11:12:42.562Z,21.20
2022-11-28T11:13:42.539Z,27.50
2022-11-28T11:14:42.606Z,20.80
2022-11-28T11:15:42.599Z,21.60
2022-11-28T11:16:42.526Z,22.00
2022-11-28T11:17:42.497Z,25.40
2022-11-28T11:18:42.534Z,20.50
2022-11-28T11:19:42.852Z,20.50
2022-11-28T11:20:42.493Z,23.90
2022-11-28T11:21:42.500Z,25.40
2022-11-28T11:22:43.044Z,22.60
2022-11-28T11:23:42.484Z,28.60
2022-11-28T11:24:42.498Z,19.80
2022-11-28T11:25:42.469Z,22.90
2022-11-28T11:26:42.489Z,20.60
2022-11-28T11:27:42.469Z,19.50
2022-11-28T11:28:42.505Z,24.90
2022-11-28T11:29:44.751Z,21.80
2022-11-28T11:30:42.528Z,21.70
2022-11-28T11:31:42.443Z,19.50
2022-11-28T11:32:43.280Z,20.60
2022-11-28T11:33:42.460Z,19.70
2022-11-28T11:34:42.422Z,23.00
2022-11-28T11:35:42.427Z,20.40
2022-11-28T11:36:42.417Z,20.50
2022-11-28T11:37:42.428Z,19.90
2022-11-28T11:38:42.449Z,20.60
2022-11-28T11:39:42.665Z,20.80
2022-11-28T11:40:42.395Z,19.90
2022-11-28T11:41:42.392Z,19.00
2022-11-28T11:42:42.449Z,25.70
2022-11-28T11:43:42.404Z,19.50
2022-11-28T11:44:42.394Z,22.40
2022-11-28T11:45:42.459Z,18.80
2022-11-28T11:46:42.528Z,19.20
2022-11-28T11:47:42.384Z,19.40
2022-11-28T11:48:42.373Z,19.80
2022-11-28T11:49:42.708Z,20.40
2022-11-28T11:50:42.357Z,19.30
2022-11-28T11:51:42.365Z,19.50
2022-11-28T11:52:42.370Z,20.40
2022-11-28T11:53:42.350Z,19.40
2022-11-28T11:54:42.306Z,20.10
2022-11-28T11:55:42.302Z,19.40
2022-11-28T11:56:42.311Z,18.60
2022-11-28T11:57:42.326Z,21.00
2022-11-28T11:58:42.296Z,24.30
2022-11-28T11:59:42.505Z,19.20
2022-11-28T12:00:42.305Z,21.30
2022-11-28T12:01:42.299Z,18.70
2022-11-28T12:02:42.373Z,18.80
2022-11-28T12:03:42.355Z,22.30
2022-11-28T12:04:48.036Z,20.80
2022-11-28T12:06:12.144Z,21.20
2022-11-28T12:06:44.266Z,18.90
2022-11-28T12:07:42.303Z,24.50
2022-11-28T12:08:42.237Z,25.90
2022-11-28T12:09:42.722Z,19.20
2022-11-28T12:10:42.218Z,22.60
2022-11-28T12:12:44.217Z,19.30
2022-11-28T12:13:42.219Z,22.90
2022-11-28T12:14:42.735Z,19.70
2022-11-28T12:15:42.235Z,17.60
2022-11-28T12:16:42.270Z,18.30
2022-11-28T12:17:52.365Z,18.50
2022-11-28T12:18:44.188Z,17.80
2022-11-28T12:19:42.189Z,19.70
2022-11-28T12:20:42.212Z,20.30
2022-11-28T12:21:42.171Z,17.20
2022-11-28T12:22:42.209Z,18.30
2022-11-28T12:23:42.161Z,18.70
2022-11-28T12:24:42.222Z,20.80
2022-11-28T12:25:42.178Z,18.30
2022-11-28T12:26:42.144Z,21.00
2022-11-28T12:27:42.150Z,19.60
2022-11-28T12:28:42.167Z,18.00
2022-11-28T12:29:42.478Z,17.70
2022-11-28T12:30:44.778Z,18.70
2022-11-28T12:31:42.216Z,19.50
2022-11-28T12:32:42.153Z,20.40
2022-11-28T12:33:42.143Z,24.50
2022-11-28T12:34:42.094Z,18.40
2022-11-28T12:35:42.114Z,19.80
2022-11-28T12:36:42.083Z,17.20
2022-11-28T12:38:09.729Z,18.20
2022-11-28T12:38:44.111Z,21.30
2022-11-28T12:39:42.337Z,20.40
2022-11-28T12:40:42.089Z,18.40
2022-11-28T12:41:42.100Z,17.90
2022-11-28T12:42:42.104Z,18.00
2022-11-28T12:43:42.094Z,26.00
2022-11-28T12:44:42.056Z,17.20
2022-11-28T12:45:42.069Z,18.10
2022-11-28T12:46:42.066Z,19.70
2022-11-28T12:47:42.067Z,16.60
2022-11-28T12:48:42.085Z,17.30
2022-11-28T12:49:42.655Z,18.50
2022-11-28T12:50:42.033Z,22.80
2022-11-28T12:51:42.032Z,20.00
2022-11-28T12:52:42.038Z,15.60
2022-11-28T12:53:42.019Z,17.30
2022-11-28T12:54:42.052Z,22.20
2022-11-28T12:55:42.001Z,31.00
2022-11-28T12:56:42.092Z,17.60